Time;durP1;ratioP1;P1;durP2;ratioP2;P2;SDS_P1;SDS_P2;PMS_P1;PMS_P2;Temp;Humidity;BMP_temperature;BMP_pressure;BME280_temperature;BME280_humidity;BME280_pressure;Samples;Min_cycle;Max_cycle;Signal;HPM_P1;HPM_P2
2021/10/26 00:00:40;;;;;;;6.88;3.40;;;;;;;-149.78;100.00;50408.84;5059401;28;20044;-72
2021/10/26 00:03:05;;;;;;;10.10;3.45;;;;;;;-149.78;100.00;50428.41;5069522;28;20036;-72
2021/10/26 00:05:31;;;;;;;7.10;3.47;;;;;;;-149.78;100.00;50373.66;5056600;28;20045;-72
2021/10/26 00:07:58;;;;;;;6.85;3.45;;;;;;;-149.78;100.00;50401.03;5063782;28;20035;-71
2021/10/26 00:10:23;;;;;;;9.98;3.83;;;;;;;-149.78;100.00;50389.31;5049936;28;20028;-71
2021/10/26 00:12:49;;;;;;;11.15;3.92;;;;;;;-149.78;100.00;50420.59;5066691;28;20493;-71
2021/10/26 00:15:15;;;;;;;9.57;3.72;;;;;;;-149.78;100.00;50412.78;5060526;28;20029;-71
2021/10/26 00:17:41;;;;;;;10.57;4.03;;;;;;;-149.78;100.00;50397.13;5054788;28;20036;-71
2021/10/26 00:20:08;;;;;;;8.63;3.65;;;;;;;-149.78;100.00;50397.13;5055503;28;20033;-71
2021/10/26 00:22:34;;;;;;;13.43;4.00;;;;;;;-149.78;100.00;50416.69;5056717;28;20129;-71
2021/10/26 00:25:02;;;;;;;11.15;5.28;;;;;;;-149.78;100.00;50432.31;5057138;28;20154;-71
2021/10/26 00:27:28;;;;;;;6.93;3.50;;;;;;;-149.78;100.00;50397.13;5060373;28;20024;-72
2021/10/26 00:29:53;;;;;;;9.50;3.70;;;;;;;-149.78;100.00;50424.50;5065066;28;20028;-71
2021/10/26 00:32:20;;;;;;;9.20;3.25;;;;;;;-149.78;100.00;50389.31;5072841;28;20032;-71
2021/10/26 00:34:46;;;;;;;8.63;3.97;;;;;;;-149.78;100.00;50389.31;5053493;28;20037;-72
2021/10/26 00:37:13;;;;;;;11.55;3.55;;;;;;;-149.78;100.00;50436.25;5071816;28;20074;-72
2021/10/26 00:39:39;;;;;;;8.35;3.83;;;;;;;-149.78;100.00;50412.78;5066920;28;20032;-72
2021/10/26 00:42:05;;;;;;;9.60;3.67;;;;;;;-149.78;100.00;50365.84;5059089;28;20043;-71
2021/10/26 00:44:32;;;;;;;12.38;3.30;;;;;;;-149.78;100.00;50408.84;5057431;28;20373;-72
2021/10/26 00:46:58;;;;;;;9.82;3.85;;;;;;;-149.78;100.00;50385.38;5056245;28;20460;-71
2021/10/26 00:49:23;;;;;;;9.38;3.90;;;;;;;-149.78;100.00;50389.31;5063846;28;20137;-72
2021/10/26 00:51:51;;;;;;;12.32;4.03;;;;;;;-149.78;100.00;50397.13;5071045;28;20492;-71
2021/10/26 00:54:18;;;;;;;8.73;3.58;;;;;;;-149.78;100.00;50373.66;5054749;28;20111;-71
2021/10/26 00:56:44;;;;;;;9.88;3.80;;;;;;;-149.78;100.00;50401.03;5066746;28;20036;-72
2021/10/26 00:59:10;;;;;;;5.63;3.25;;;;;;;-149.78;100.00;50401.03;5053366;28;20029;-72
2021/10/26 01:01:36;;;;;;;9.90;3.40;;;;;;;-149.78;100.00;50408.84;5067209;28;20332;-71
2021/10/26 01:04:02;;;;;;;11.20;3.25;;;;;;;-149.78;100.00;50397.13;5051358;28;20029;-72
2021/10/26 01:06:29;;;;;;;7.85;3.13;;;;;;;-149.78;100.00;50395.16;5068874;28;20039;-72
2021/10/26 01:08:54;;;;;;;9.70;3.05;;;;;;;-149.78;100.00;50399.09;5059110;28;20032;-72
2021/10/26 01:11:21;;;;;;;8.25;3.22;;;;;;;-149.78;100.00;50404.94;5060452;28;20033;-72
2021/10/26 01:13:48;;;;;;;8.25;2.88;;;;;;;-149.78;100.00;50408.84;5068760;28;20032;-72
2021/10/26 01:16:14;;;;;;;10.00;3.38;;;;;;;-149.78;100.00;50393.22;5069351;28;20033;-72
2021/10/26 01:18:39;;;;;;;7.53;3.83;;;;;;;-149.78;100.00;50381.47;5067430;28;20044;-71
2021/10/26 01:21:05;;;;;;;6.32;3.50;;;;;;;-149.78;100.00;50369.75;5064278;28;20032;-71
2021/10/26 01:23:33;;;;;;;9.65;3.35;;;;;;;-149.78;100.00;50379.53;5062016;28;20068;-72
2021/10/26 01:26:00;;;;;;;7.15;4.40;;;;;;;-149.78;100.00;50403.00;5054300;28;20437;-72
2021/10/26 01:28:26;;;;;;;7.53;3.25;;;;;;;-149.78;100.00;50397.13;5071065;28;20021;-72
2021/10/26 01:30:52;;;;;;;7.22;3.35;;;;;;;-149.78;100.00;50383.44;5068619;28;20458;-72
2021/10/26 01:33:18;;;;;;;10.35;3.65;;;;;;;-149.78;100.00;50375.63;5052925;28;20040;-72
2021/10/26 01:35:43;;;;;;;9.43;3.70;;;;;;;-149.78;100.00;50373.66;5052712;28;20032;-72
2021/10/26 01:38:09;;;;;;;12.35;4.00;;;;;;;-149.78;100.00;50359.97;5062667;28;20392;-72
2021/10/26 01:40:36;;;;;;;9.35;3.80;;;;;;;-149.78;100.00;50408.84;5058164;28;20483;-72
2021/10/26 01:43:03;;;;;;;13.30;4.45;;;;;;;-149.78;100.00;50373.66;5057132;28;20033;-72
2021/10/26 01:45:29;;;;;;;10.90;3.88;;;;;;;-149.78;100.00;50393.22;5052029;28;20021;-72
2021/10/26 01:47:56;;;;;;;8.32;3.65;;;;;;;-149.78;100.00;50377.56;5054226;28;20395;-71
2021/10/26 01:50:22;;;;;;;9.07;3.97;;;;;;;-149.78;100.00;50383.44;5061337;28;20029;-71
2021/10/26 01:52:49;;;;;;;6.18;3.25;;;;;;;-149.78;100.00;50412.78;5064035;28;20045;-72
2021/10/26 01:55:18;;;;;;;7.53;3.35;;;;;;;-149.78;100.00;50395.16;5056739;28;20029;-71
2021/10/26 01:57:44;;;;;;;8.48;3.25;;;;;;;-149.78;100.00;50424.50;5063820;28;20040;-71
2021/10/26 02:00:11;;;;;;;9.38;3.30;;;;;;;-149.78;100.00;50367.78;5069786;28;20040;-71
2021/10/26 02:02:37;;;;;;;7.65;2.65;;;;;;;-149.78;100.00;50373.66;5055999;28;20029;-71
2021/10/26 02:05:04;;;;;;;8.75;3.30;;;;;;;-149.78;100.00;50404.94;5057473;28;20032;-71
2021/10/26 02:07:30;;;;;;;5.95;2.80;;;;;;;-149.78;100.00;50393.22;5054876;28;21377;-71
2021/10/26 02:09:56;;;;;;;11.25;2.80;;;;;;;-149.78;100.00;50397.13;5059911;28;20036;-71
2021/10/26 02:12:22;;;;;;;7.45;2.83;;;;;;;-149.78;100.00;50406.91;5062586;28;20036;-71
2021/10/26 02:14:49;;;;;;;4.78;2.40;;;;;;;-149.78;100.00;50403.00;5061525;28;20108;-71
2021/10/26 02:17:15;;;;;;;8.73;2.25;;;;;;;-149.78;100.00;50393.22;5063537;28;20036;-71
2021/10/26 02:19:41;;;;;;;5.22;2.65;;;;;;;-149.78;100.00;50361.91;5054851;28;20075;-72
2021/10/26 02:22:07;;;;;;;5.22;2.30;;;;;;;-149.78;100.00;50397.13;5061568;28;20041;-72
2021/10/26 02:24:33;;;;;;;7.72;2.55;;;;;;;-149.78;100.00;50385.38;5062212;28;20109;-72
2021/10/26 02:26:58;;;;;;;5.65;2.10;;;;;;;-149.78;100.00;50395.16;5059826;28;20036;-71
2021/10/26 02:29:25;;;;;;;5.93;2.35;;;;;;;-149.78;100.00;50426.47;5062992;28;20078;-71
2021/10/26 02:31:51;;;;;;;6.70;2.55;;;;;;;-149.78;100.00;50346.28;5065313;28;20483;-71
2021/10/26 02:34:18;;;;;;;6.60;1.98;;;;;;;-149.78;100.00;50420.59;5062095;28;20053;-71
2021/10/26 02:36:46;;;;;;;9.43;2.15;;;;;;;-149.78;100.00;50369.75;5060757;28;20112;-71
2021/10/26 02:39:12;;;;;;;8.20;2.55;;;;;;;-149.78;100.00;50389.31;5058953;28;20028;-71
2021/10/26 02:41:37;;;;;;;7.32;2.22;;;;;;;-149.78;100.00;50397.13;5032802;28;20394;-72
2021/10/26 02:44:04;;;;;;;8.05;2.60;;;;;;;-149.78;100.00;50383.44;5056758;28;20048;-72
2021/10/26 02:46:29;;;;;;;8.20;3.47;;;;;;;-149.78;100.00;50412.78;5060974;28;20036;-72
2021/10/26 02:48:55;;;;;;;7.65;2.40;;;;;;;-149.78;100.00;50404.94;5068041;28;20115;-72
2021/10/26 02:51:20;;;;;;;9.65;2.75;;;;;;;-149.78;100.00;50408.84;5067671;28;20036;-72
2021/10/26 02:53:47;;;;;;;7.68;2.50;;;;;;;-149.78;100.00;50381.47;5071524;28;20049;-72
2021/10/26 02:56:13;;;;;;;10.07;2.50;;;;;;;-149.78;100.00;50373.66;5066344;28;20048;-72
2021/10/26 02:58:40;;;;;;;7.47;2.80;;;;;;;-149.78;100.00;50381.47;5051180;28;20056;-73
2021/10/26 03:01:08;;;;;;;12.75;2.80;;;;;;;-149.78;100.00;50365.84;5060570;28;20029;-72
2021/10/26 03:03:33;;;;;;;6.57;2.47;;;;;;;-149.78;100.00;50391.25;5065256;28;20067;-73
2021/10/26 03:06:00;;;;;;;6.32;2.28;;;;;;;-149.78;100.00;50408.84;5066503;28;20391;-72
2021/10/26 03:08:25;;;;;;;8.77;2.40;;;;;;;-149.78;100.00;50397.13;5060986;28;20021;-72
2021/10/26 03:10:51;;;;;;;8.25;2.45;;;;;;;-149.78;100.00;50369.75;5057578;28;20549;-72
2021/10/26 03:13:16;;;;;;;7.25;2.10;;;;;;;-149.78;100.00;50377.56;5063667;28;20048;-72
2021/10/26 03:15:42;;;;;;;7.95;2.35;;;;;;;-149.78;100.00;50381.47;5063623;28;20036;-72
2021/10/26 03:18:08;;;;;;;8.02;2.45;;;;;;;-149.78;100.00;50424.50;5066191;28;20028;-72
2021/10/26 03:20:35;;;;;;;5.40;1.88;;;;;;;-149.78;100.00;50401.03;5071124;28;20040;-72
2021/10/26 03:23:02;;;;;;;13.45;2.95;;;;;;;-149.78;100.00;50397.13;5068674;28;20119;-71
2021/10/26 03:25:27;;;;;;;10.50;4.53;;;;;;;-149.78;100.00;50404.94;5066530;28;20032;-71
2021/10/26 03:27:53;;;;;;;8.68;2.58;;;;;;;-149.78;100.00;50401.03;5061459;28;20029;-72
2021/10/26 03:30:19;;;;;;;12.00;2.17;;;;;;;-149.78;100.00;50414.72;5069591;28;20036;-71
2021/10/26 03:32:45;;;;;;;5.85;2.60;;;;;;;-149.78;100.00;50401.03;5064286;28;20065;-71
2021/10/26 03:35:12;;;;;;;12.90;2.63;;;;;;;-149.78;100.00;50410.81;5060130;28;20025;-72
2021/10/26 03:37:38;;;;;;;5.75;2.30;;;;;;;-149.78;100.00;50385.38;5073748;28;20028;-71
2021/10/26 03:40:05;;;;;;;10.27;2.42;;;;;;;-149.78;100.00;50424.50;5065994;28;20040;-71
2021/10/26 03:42:31;;;;;;;5.88;2.42;;;;;;;-149.78;100.00;50385.38;5068880;28;20469;-71
2021/10/26 03:44:57;;;;;;;7.70;2.35;;;;;;;-149.78;100.00;50397.13;5073906;28;20079;-72
2021/10/26 03:47:22;;;;;;;6.80;2.33;;;;;;;-149.78;100.00;50406.91;5060496;28;20039;-71
2021/10/26 03:49:48;;;;;;;7.28;2.65;;;;;;;-149.78;100.00;50410.81;5062951;28;20041;-71
2021/10/26 03:52:15;;;;;;;5.80;2.58;;;;;;;-149.78;100.00;50430.38;5081284;28;20056;-71
2021/10/26 03:54:41;;;;;;;12.43;2.90;;;;;;;-149.78;100.00;50401.03;5047356;28;20033;-72
2021/10/26 03:57:10;;;;;;;6.30;2.78;;;;;;;-149.78;100.00;50412.78;5070597;28;20116;-71
2021/10/26 03:59:36;;;;;;;6.28;2.95;;;;;;;-149.78;100.00;50418.63;5062821;28;20044;-71
2021/10/26 04:02:08;;;;;;;11.73;2.80;;;;;;;-149.78;100.00;50410.81;5073316;28;20036;-71
2021/10/26 04:04:34;;;;;;;10.23;2.67;;;;;;;-149.78;100.00;50418.63;5064514;28;20120;-71
2021/10/26 04:07:02;;;;;;;9.25;2.63;;;;;;;-149.78;100.00;50412.78;5073658;28;20064;-72
2021/10/26 04:12:23;;;;;;;11.00;3.03;;;;;;;-149.78;100.00;50389.31;5071383;28;20033;-71
2021/10/26 04:14:49;;;;;;;6.13;3.00;;;;;;;-149.78;100.00;50375.63;5069599;28;20025;-71
2021/10/26 04:17:15;;;;;;;11.18;3.03;;;;;;;-149.78;100.00;50379.53;5072102;28;20032;-71
2021/10/26 04:19:41;;;;;;;9.98;3.03;;;;;;;-149.78;100.00;50361.91;5068153;28;20040;-72
2021/10/26 04:22:10;;;;;;;10.15;2.83;;;;;;;-149.78;100.00;50401.03;5067674;28;20464;-71
2021/10/26 04:24:35;;;;;;;7.88;3.15;;;;;;;-149.78;100.00;50393.22;5084541;28;20460;-72
2021/10/26 04:27:01;;;;;;;4.93;2.60;;;;;;;-149.78;100.00;50387.34;5057045;28;20094;-72
2021/10/26 04:29:26;;;;;;;10.35;3.20;;;;;;;-149.78;100.00;50406.91;5058938;28;20033;-72
2021/10/26 04:31:53;;;;;;;8.13;2.78;;;;;;;-149.78;100.00;50369.75;5045647;28;20091;-73
2021/10/26 04:34:18;;;;;;;7.45;3.05;;;;;;;-149.78;100.00;50389.31;5061982;28;20142;-71
2021/10/26 04:36:44;;;;;;;9.70;3.00;;;;;;;-149.78;100.00;50389.31;5057104;28;20479;-72
2021/10/26 04:39:10;;;;;;;11.13;2.92;;;;;;;-149.78;100.00;50358.00;5055192;28;20392;-72
2021/10/26 04:41:37;;;;;;;10.10;3.25;;;;;;;-149.78;100.00;50404.94;5063124;28;20036;-71
2021/10/26 04:44:04;;;;;;;5.75;3.00;;;;;;;-149.78;100.00;50385.38;5067695;28;20162;-71
2021/10/26 04:46:30;;;;;;;7.30;3.03;;;;;;;-149.78;100.00;50401.03;5065152;28;20028;-72
2021/10/26 04:48:56;;;;;;;6.60;2.88;;;;;;;-149.78;100.00;50393.22;5061076;28;20031;-71
2021/10/26 04:51:22;;;;;;;6.03;3.00;;;;;;;-149.78;100.00;50432.31;5063341;28;20119;-71
2021/10/26 04:53:48;;;;;;;5.85;3.53;;;;;;;-149.78;100.00;50406.91;5074618;28;20041;-71
2021/10/26 04:56:13;;;;;;;8.50;3.47;;;;;;;-149.78;100.00;50377.56;5074012;28;20465;-72
2021/10/26 04:58:40;;;;;;;14.25;3.90;;;;;;;-149.78;100.00;50408.84;5071580;28;20498;-72
2021/10/26 05:01:05;;;;;;;9.20;3.38;;;;;;;-149.78;100.00;50416.69;5061119;28;20037;-72
2021/10/26 05:03:32;;;;;;;11.10;3.25;;;;;;;-149.78;100.00;50408.84;5065696;28;20041;-72
2021/10/26 05:05:58;;;;;;;14.95;3.42;;;;;;;-149.78;100.00;50420.59;5063491;28;20116;-72
2021/10/26 05:08:24;;;;;;;8.65;3.30;;;;;;;-149.78;100.00;50424.50;5064586;28;20123;-71
2021/10/26 05:10:50;;;;;;;10.63;3.17;;;;;;;-149.78;100.00;50397.13;5059889;28;20476;-71
2021/10/26 05:13:16;;;;;;;12.65;3.50;;;;;;;-149.78;100.00;50381.47;5057886;28;20036;-72
2021/10/26 05:15:42;;;;;;;6.72;3.08;;;;;;;-149.78;100.00;50420.59;5083871;28;20040;-72
2021/10/26 05:18:13;;;;;;;8.60;3.10;;;;;;;-149.78;100.00;50393.22;5064483;28;20055;-72
2021/10/26 05:20:39;;;;;;;9.07;3.30;;;;;;;-149.78;100.00;50426.47;5054317;28;20033;-72
2021/10/26 05:23:06;;;;;;;8.82;3.38;;;;;;;-149.78;100.00;50373.66;5070229;28;20040;-72
2021/10/26 05:25:32;;;;;;;7.30;2.85;;;;;;;-149.78;100.00;50369.75;5041654;28;20071;-72
2021/10/26 05:27:58;;;;;;;12.05;3.33;;;;;;;-149.78;100.00;50416.69;5060717;28;20064;-72
2021/10/26 05:30:24;;;;;;;10.18;2.85;;;;;;;-149.78;100.00;50389.31;5059255;28;20119;-71
2021/10/26 05:32:50;;;;;;;7.65;2.83;;;;;;;-149.78;100.00;50404.94;5067504;28;20036;-72
2021/10/26 05:35:15;;;;;;;8.98;3.28;;;;;;;-149.78;100.00;50408.84;5068679;28;20407;-72
2021/10/26 05:37:42;;;;;;;7.63;3.10;;;;;;;-149.78;100.00;50404.94;5057076;28;20393;-72
2021/10/26 05:40:08;;;;;;;14.43;6.10;;;;;;;-149.78;100.00;50428.41;5059238;28;20054;-72
2021/10/26 05:42:35;;;;;;;9.18;3.60;;;;;;;-149.78;100.00;50401.03;5064354;28;20116;-72
2021/10/26 05:45:02;;;;;;;9.10;3.50;;;;;;;-149.78;100.00;50387.34;5065866;28;20067;-72
2021/10/26 05:47:28;;;;;;;7.57;3.25;;;;;;;-149.78;100.00;50377.56;5057804;28;20357;-72
2021/10/26 05:49:54;;;;;;;7.35;3.25;;;;;;;-149.78;100.00;50377.56;5061955;28;20033;-71
2021/10/26 05:52:20;;;;;;;6.32;2.92;;;;;;;-149.78;100.00;50401.03;5053332;28;20103;-72
2021/10/26 05:54:45;;;;;;;12.55;3.53;;;;;;;-149.78;100.00;50406.91;5038073;28;20048;-72
2021/10/26 05:57:12;;;;;;;10.55;2.88;;;;;;;-149.78;100.00;50377.56;5065795;28;20098;-73
2021/10/26 05:59:37;;;;;;;13.60;3.97;;;;;;;-149.78;100.00;50404.94;5058959;28;20128;-72
2021/10/26 06:02:03;;;;;;;11.60;3.30;;;;;;;-149.78;100.00;50397.13;5072142;28;20029;-72
2021/10/26 06:04:29;;;;;;;12.02;3.50;;;;;;;-149.78;100.00;50391.25;5071775;28;20063;-72
2021/10/26 06:06:55;;;;;;;12.95;3.30;;;;;;;-149.78;100.00;50434.28;5069034;28;20040;-73
2021/10/26 06:09:23;;;;;;;7.88;3.30;;;;;;;-149.78;100.00;50412.78;5053737;28;20041;-72
2021/10/26 06:11:50;;;;;;;7.78;3.60;;;;;;;-149.78;100.00;50391.25;5068673;28;21792;-73
2021/10/26 06:14:15;;;;;;;9.50;4.22;;;;;;;-149.78;100.00;50399.09;5057882;28;20028;-73
2021/10/26 06:16:41;;;;;;;10.30;3.35;;;;;;;-149.78;100.00;50381.47;5070308;28;20052;-73
2021/10/26 06:19:10;;;;;;;7.75;3.72;;;;;;;-149.78;100.00;50428.41;5060611;28;20040;-73
2021/10/26 06:21:36;;;;;;;8.77;3.40;;;;;;;-149.78;100.00;50408.84;5063581;28;20055;-73
2021/10/26 06:24:02;;;;;;;10.48;4.07;;;;;;;-149.78;100.00;50373.66;5054243;28;20039;-73
2021/10/26 06:26:30;;;;;;;10.30;3.88;;;;;;;-149.78;100.00;50379.53;5061258;28;20028;-71
2021/10/26 06:28:56;;;;;;;7.15;3.72;;;;;;;-149.78;100.00;50432.31;5058681;28;20594;-72
2021/10/26 06:31:22;;;;;;;15.82;4.88;;;;;;;-149.78;100.00;50418.63;5062958;28;20047;-78
2021/10/26 06:33:48;;;;;;;8.75;3.60;;;;;;;-149.78;100.00;50420.59;5059755;28;20025;-72
2021/10/26 06:36:15;;;;;;;10.85;4.20;;;;;;;-149.78;100.00;50369.75;5059159;28;20025;-70
2021/10/26 06:38:41;;;;;;;12.27;4.30;;;;;;;-149.78;100.00;50397.13;5065691;28;20028;-70
2021/10/26 06:41:07;;;;;;;10.63;3.80;;;;;;;-149.78;100.00;50424.50;5063540;28;20495;-72
2021/10/26 06:43:35;;;;;;;9.27;3.88;;;;;;;-149.78;100.00;50385.38;5057697;28;20037;-72
2021/10/26 06:46:01;;;;;;;10.05;4.28;;;;;;;-149.78;100.00;50416.69;5064514;28;20043;-72
2021/10/26 06:48:26;;;;;;;16.50;5.10;;;;;;;-149.78;100.00;50393.22;5057018;28;20029;-71
2021/10/26 06:50:52;;;;;;;13.45;4.22;;;;;;;-149.78;100.00;50397.13;5055887;28;20053;-72
2021/10/26 06:53:19;;;;;;;10.73;4.07;;;;;;;-149.78;100.00;50404.94;5063270;28;20044;-71
2021/10/26 06:55:46;;;;;;;10.48;4.68;;;;;;;-149.78;100.00;50389.31;5059261;28;20029;-71
2021/10/26 06:58:11;;;;;;;9.55;4.85;;;;;;;-149.78;100.00;50416.69;5062000;28;20037;-70
2021/10/26 07:00:38;;;;;;;10.63;4.15;;;;;;;-149.78;100.00;50401.03;5057016;28;20044;-74
2021/10/26 07:03:04;;;;;;;8.35;4.15;;;;;;;-149.78;100.00;50404.94;5058278;28;20045;-72
2021/10/26 07:05:31;;;;;;;9.57;4.25;;;;;;;-149.78;100.00;50385.38;5060279;28;20047;-70
2021/10/26 07:07:58;;;;;;;11.13;4.65;;;;;;;-149.78;100.00;50385.38;5061349;28;20029;-71
2021/10/26 07:10:24;;;;;;;9.23;4.72;;;;;;;-149.78;100.00;50424.50;5059932;28;20047;-68
2021/10/26 07:12:50;;;;;;;10.40;4.57;;;;;;;-149.78;100.00;50412.78;5060307;28;20035;-72
2021/10/26 07:15:16;;;;;;;13.43;4.78;;;;;;;-149.78;100.00;50373.66;5061609;28;20029;-72
2021/10/26 07:17:43;;;;;;;12.98;4.95;;;;;;;-149.78;100.00;50385.38;5060872;28;20115;-72
2021/10/26 07:20:12;;;;;;;11.60;3.90;;;;;;;-149.78;100.00;50440.16;5062102;28;20028;-72
2021/10/26 07:22:38;;;;;;;11.40;4.68;;;;;;;-149.78;100.00;50375.63;5061822;28;20029;-73
2021/10/26 07:25:08;;;;;;;8.23;4.00;;;;;;;-149.78;100.00;50373.66;5061388;28;20108;-72
2021/10/26 07:27:35;;;;;;;9.68;4.10;;;;;;;-149.78;100.00;50401.03;5063721;28;20029;-72
2021/10/26 07:30:03;;;;;;;9.98;4.80;;;;;;;-149.78;100.00;50401.03;5048758;28;20040;-73
2021/10/26 07:32:29;;;;;;;15.43;5.53;;;;;;;-149.78;100.00;50381.47;5062044;28;20032;-72
2021/10/26 07:34:55;;;;;;;9.93;4.82;;;;;;;-149.78;100.00;50385.38;5058989;28;20117;-73
2021/10/26 07:37:24;;;;;;;12.48;5.25;;;;;;;-149.78;100.00;50389.31;5061416;28;20020;-71
2021/10/26 07:39:51;;;;;;;18.48;4.95;;;;;;;-149.78;100.00;50391.25;5059893;28;20032;-72
2021/10/26 07:42:20;;;;;;;11.07;5.25;;;;;;;-149.78;100.00;50403.00;5037549;28;20041;-70
2021/10/26 07:44:47;;;;;;;17.27;6.00;;;;;;;-149.78;100.00;50379.53;5062547;28;20033;-72
2021/10/26 07:47:16;;;;;;;11.43;5.63;;;;;;;-149.78;100.00;50381.47;5062216;28;20116;-70
2021/10/26 07:49:44;;;;;;;9.93;5.22;;;;;;;-149.78;100.00;50391.25;5062652;28;20404;-72
2021/10/26 07:52:11;;;;;;;11.88;5.55;;;;;;;-149.78;100.00;50412.78;5063557;28;20094;-75
2021/10/26 07:54:38;;;;;;;17.85;5.97;;;;;;;-149.78;100.00;50412.78;5060051;28;20107;-75
2021/10/26 07:57:05;;;;;;;12.18;6.18;;;;;;;-149.78;100.00;50401.03;5062687;28;20035;-75
2021/10/26 07:59:31;;;;;;;17.02;5.60;;;;;;;-149.78;100.00;50348.22;5071510;28;20068;-72
2021/10/26 08:01:57;;;;;;;11.70;5.90;;;;;;;-149.78;100.00;50389.31;5064313;28;20088;-75
2021/10/26 08:04:23;;;;;;;14.23;5.90;;;;;;;-149.78;100.00;50391.25;5067291;28;20036;-73
2021/10/26 08:06:49;;;;;;;16.08;6.07;;;;;;;-149.78;100.00;50395.16;5062846;28;20036;-73
2021/10/26 08:09:19;;;;;;;10.10;5.22;;;;;;;-149.78;100.00;50401.03;5065879;28;20698;-74
2021/10/26 08:11:45;;;;;;;11.77;5.28;;;;;;;-149.78;100.00;50383.44;5068131;28;20033;-74
2021/10/26 08:14:11;;;;;;;17.25;5.75;;;;;;;-149.78;100.00;50401.03;5049367;28;20048;-73
2021/10/26 08:16:39;;;;;;;11.70;5.68;;;;;;;-149.78;100.00;50389.31;5064299;28;20111;-69
2021/10/26 08:19:05;;;;;;;16.77;5.55;;;;;;;-149.78;100.00;50424.50;5062510;28;20033;-72
2021/10/26 08:21:30;;;;;;;16.67;8.05;;;;;;;-149.78;100.00;50385.38;5063264;28;20037;-73
2021/10/26 08:23:56;;;;;;;17.65;6.22;;;;;;;-149.78;100.00;50369.75;5056866;28;20041;-73
2021/10/26 08:26:32;;;;;;;22.20;6.93;;;;;;;-149.78;100.00;50389.31;5066747;28;20028;-71
2021/10/26 08:29:06;;;;;;;16.73;5.78;;;;;;;-149.78;100.00;50408.84;5064382;28;20503;-73
2021/10/26 08:31:43;;;;;;;70.78;25.20;;;;;;;-149.78;100.00;50379.53;5056901;28;20036;-78
2021/10/26 08:34:30;;;;;;;22.13;8.43;;;;;;;-149.78;100.00;50397.13;5036211;28;20028;-79
2021/10/26 08:36:56;;;;;;;16.63;6.30;;;;;;;-149.78;100.00;50397.13;5064717;28;20040;-80
2021/10/26 08:39:22;;;;;;;16.90;6.50;;;;;;;-149.78;100.00;50358.00;5063894;28;20032;-77
2021/10/26 08:41:49;;;;;;;16.63;7.95;;;;;;;-149.78;100.00;50420.59;5058944;28;20037;-76
2021/10/26 08:44:17;;;;;;;13.73;6.20;;;;;;;-149.78;100.00;50373.66;5066775;28;20029;-72
2021/10/26 08:46:44;;;;;;;13.77;6.32;;;;;;;-149.78;100.00;50385.38;5061673;28;20835;-77
2021/10/26 08:49:12;;;;;;;9.52;5.03;;;;;;;-149.78;100.00;50381.47;5068243;28;20029;-75
2021/10/26 08:51:40;;;;;;;11.10;5.07;;;;;;;-149.78;100.00;50383.44;5049741;28;20037;-74
2021/10/26 08:54:06;;;;;;;9.05;4.63;;;;;;;-149.78;100.00;50412.78;5057362;28;20037;-73
2021/10/26 08:56:32;;;;;;;10.77;4.60;;;;;;;-149.78;100.00;50361.91;5069155;28;20087;-71
2021/10/26 08:59:00;;;;;;;11.50;5.57;;;;;;;-149.78;100.00;50356.06;5064532;28;20029;-72
2021/10/26 09:01:29;;;;;;;13.23;4.50;;;;;;;-149.78;100.00;50365.84;5070081;28;20041;-75
2021/10/26 09:04:09;;;;;;;13.10;4.55;;;;;;;-149.78;100.00;50361.91;5062246;28;20028;-74
2021/10/26 09:06:53;;;;;;;9.70;4.15;;;;;;;-149.78;100.00;50397.13;5051907;28;20044;-73
2021/10/26 09:09:23;;;;;;;14.50;4.50;;;;;;;-149.78;100.00;50412.78;5062968;28;20029;-78
2021/10/26 09:17:32;;;;;;;13.05;4.80;;;;;;;-149.78;100.00;50369.75;5082432;28;20045;-73
2021/10/26 09:20:02;;;;;;;9.25;4.05;;;;;;;-149.78;100.00;50373.66;5061151;28;20029;-74
2021/10/26 09:22:30;;;;;;;9.38;4.20;;;;;;;-149.78;100.00;50354.09;5064196;28;20035;-72
2021/10/26 09:25:09;;;;;;;10.55;4.40;;;;;;;-149.78;100.00;50381.47;5061399;28;20028;-71
2021/10/26 09:27:35;;;;;;;16.08;5.60;;;;;;;-149.78;100.00;50354.09;5062694;28;20032;-72
2021/10/26 09:30:09;;;;;;;12.73;6.00;;;;;;;-149.78;100.00;50381.47;5062690;28;20120;-71
2021/10/26 09:32:41;;;;;;;11.55;4.93;;;;;;;-149.78;100.00;50365.84;5054178;28;20040;-72
2021/10/26 09:35:14;;;;;;;9.85;5.18;;;;;;;-149.78;100.00;50385.38;5061813;28;20021;-72
2021/10/26 09:37:45;;;;;;;13.95;4.95;;;;;;;-149.78;100.00;50365.84;5067613;28;20707;-72
2021/10/26 09:40:13;;;;;;;8.65;4.75;;;;;;;-149.78;100.00;50361.91;5066983;28;20036;-73
2021/10/26 09:42:46;;;;;;;13.45;5.28;;;;;;;-149.78;100.00;50381.47;5060025;28;20028;-73
2021/10/26 09:45:24;;;;;;;10.38;4.85;;;;;;;-149.78;100.00;50393.22;5059414;28;20021;-72
2021/10/26 09:48:13;;;;;;;15.25;5.43;;;;;;;-149.78;100.00;50354.09;5065066;28;20039;-72
2021/10/26 09:50:41;;;;;;;12.13;5.05;;;;;;;-149.78;100.00;50367.78;5066595;28;20041;-72
2021/10/26 09:53:13;;;;;;;9.43;4.60;;;;;;;-149.78;100.00;50369.75;5061256;28;20037;-73
2021/10/26 09:55:41;;;;;;;8.45;4.50;;;;;;;-149.78;100.00;50369.75;5060978;28;20060;-72
2021/10/26 09:58:17;;;;;;;12.48;4.47;;;;;;;-149.78;100.00;50338.44;5065896;28;20029;-69
2021/10/26 10:00:46;;;;;;;13.25;4.63;;;;;;;-149.78;100.00;50359.97;5057209;28;20453;-70
2021/10/26 10:03:14;;;;;;;8.98;4.32;;;;;;;-149.78;100.00;50338.44;5060934;28;20072;-68
2021/10/26 10:05:43;;;;;;;10.25;4.32;;;;;;;-149.78;100.00;50361.91;5064909;28;20161;-70
2021/10/26 10:08:30;;;;;;;8.70;3.55;;;;;;;-149.78;100.00;50340.41;5060076;28;20079;-69
2021/10/26 10:11:15;;;;;;;7.13;4.05;;;;;;;-149.78;100.00;50375.63;5064975;28;20112;-70
2021/10/26 10:13:45;;;;;;;11.93;4.05;;;;;;;-149.78;100.00;50404.94;5062213;28;20043;-70
2021/10/26 10:16:15;;;;;;;11.40;4.63;;;;;;;-149.78;100.00;50367.78;5059196;28;20044;-71
2021/10/26 10:18:42;;;;;;;9.43;4.22;;;;;;;-149.78;100.00;50389.31;5060322;28;20036;-70
2021/10/26 10:21:11;;;;;;;8.02;4.30;;;;;;;-149.78;100.00;50369.75;5057640;28;20017;-71
2021/10/26 10:23:40;;;;;;;11.95;4.47;;;;;;;-149.78;100.00;50393.22;5054907;28;20037;-71
2021/10/26 10:26:06;;;;;;;9.98;3.90;;;;;;;-149.78;100.00;50365.84;5063772;28;20033;-69
2021/10/26 10:28:33;;;;;;;9.52;3.83;;;;;;;-149.78;100.00;50342.38;5041330;28;20439;-70
2021/10/26 10:31:02;;;;;;;6.57;3.72;;;;;;;-149.78;100.00;50377.56;5070637;28;20089;-71
2021/10/26 10:33:29;;;;;;;10.00;3.80;;;;;;;-149.78;100.00;50358.00;5061726;28;20035;-70
2021/10/26 10:35:58;;;;;;;10.57;3.90;;;;;;;-149.78;100.00;50358.00;5054322;28;20032;-70
2021/10/26 10:38:32;;;;;;;7.47;3.50;;;;;;;-149.78;100.00;50369.75;5051827;28;20036;-70
2021/10/26 10:41:21;;;;;;;8.02;3.97;;;;;;;-149.78;100.00;50373.66;5057344;28;20025;-70
2021/10/26 10:43:47;;;;;;;9.82;4.05;;;;;;;-149.78;100.00;50346.28;5063772;28;20028;-71
2021/10/26 10:46:41;;;;;;;11.52;3.67;;;;;;;-149.78;100.00;50346.28;5058190;28;20043;-70
2021/10/26 10:49:26;;;;;;;10.73;3.60;;;;;;;-149.78;100.00;50358.00;5050553;28;20021;-70
2021/10/26 10:52:03;;;;;;;8.38;3.45;;;;;;;-149.78;100.00;50373.66;5067426;28;20364;-70
2021/10/26 10:54:36;;;;;;;6.90;3.40;;;;;;;-149.78;100.00;50361.91;5060986;28;20388;-70
2021/10/26 10:57:20;;;;;;;;;;;;;;;-149.78;100.00;50358.00;5062710;28;20035;-70
2021/10/26 10:59:58;;;;;;;5.82;3.15;;;;;;;-149.78;100.00;50389.31;5063865;28;19913;-70
2021/10/26 11:02:23;;;;;;;5.00;3.00;;;;;;;-149.78;100.00;50356.06;5050439;28;20481;-70
2021/10/26 11:04:50;;;;;;;9.27;3.50;;;;;;;-149.78;100.00;50369.75;5059884;28;20060;-71
2021/10/26 11:07:43;;;;;;;7.47;3.10;;;;;;;-149.78;100.00;50369.75;5054037;28;20037;-69
2021/10/26 11:10:14;;;;;;;6.27;3.17;;;;;;;-149.78;100.00;50338.44;5061222;28;20029;-69
2021/10/26 11:12:42;;;;;;;4.68;2.80;;;;;;;-149.78;100.00;50320.84;5062866;28;20515;-68
2021/10/26 11:15:43;;;;;;;5.38;2.75;;;;;;;-149.78;100.00;50338.44;5063257;28;20483;-68
2021/10/26 11:18:09;;;;;;;5.32;3.15;;;;;;;-149.78;100.00;50358.00;5066557;28;20348;-67